Time;durP1;ratioP1;P1;durP2;ratioP2;P2;SDS_P1;SDS_P2;PMS_P1;PMS_P2;Temp;Humidity;BMP_temperature;BMP_pressure;BME280_temperature;BME280_humidity;BME280_pressure;Samples;Min_cycle;Max_cycle;Signal;HPM_P1;HPM_P2
2021/10/26 00:00:47;;;;;;;19.80;17.10;;;5.60;1.00;;;;;;5097470;27;21095;-77
2021/10/26 00:03:15;;;;;;;22.30;17.48;;;5.50;1.00;;;;;;5100817;27;20223;-77
2021/10/26 00:05:42;;;;;;;20.27;17.13;;;5.50;1.00;;;;;;5084450;27;20316;-77
2021/10/26 00:08:10;;;;;;;20.75;17.50;;;5.50;1.00;;;;;;5100817;27;20904;-77
2021/10/26 00:10:37;;;;;;;21.45;17.45;;;5.40;1.00;;;;;;5104879;27;20690;-76
2021/10/26 00:13:04;;;;;;;18.10;16.23;;;5.40;1.00;;;;;;5103033;27;20228;-76
2021/10/26 00:15:30;;;;;;;21.38;17.55;;;5.40;1.00;;;;;;5104969;27;21042;-76
2021/10/26 00:17:57;;;;;;;19.80;17.02;;;5.30;1.00;;;;;;5106756;27;21097;-76
2021/10/26 00:20:24;;;;;;;19.38;17.33;;;5.30;1.00;;;;;;5103894;27;20230;-76
2021/10/26 00:22:50;;;;;;;20.58;16.65;;;5.40;1.00;;;;;;5103554;27;20223;-76
2021/10/26 00:25:18;;;;;;;19.42;17.42;;;5.40;1.00;;;;;;5104124;27;20223;-76
2021/10/26 00:27:45;;;;;;;18.27;16.27;;;5.40;1.00;;;;;;5115705;27;20227;-76
2021/10/26 00:30:12;;;;;;;18.70;16.70;;;5.40;1.00;;;;;;5108261;27;20287;-77
2021/10/26 00:32:51;;;;;;;19.23;17.23;;;5.40;1.00;;;;;;5109258;27;20285;-76
2021/10/26 00:35:18;;;;;;;20.02;16.67;;;5.50;1.00;;;;;;5092147;27;20234;-77
2021/10/26 00:37:45;;;;;;;18.00;16.13;;;5.50;1.00;;;;;;5109642;27;21108;-76
2021/10/26 00:40:13;;;;;;;21.27;17.88;;;5.50;1.00;;;;;;5112724;27;20230;-77
2021/10/26 00:42:42;;;;;;;17.95;15.93;;;5.50;1.00;;;;;;5111298;27;20767;-76
2021/10/26 00:45:09;;;;;;;22.40;16.65;;;5.60;1.00;;;;;;5103829;27;20227;-76
2021/10/26 00:47:36;;;;;;;17.23;15.52;;;5.70;1.00;;;;;;5109830;27;20252;-77
2021/10/26 00:50:04;;;;;;;20.35;16.42;;;5.80;1.00;;;;;;5086208;27;20234;-77
2021/10/26 00:52:31;;;;;;;21.10;17.38;;;5.80;1.00;;;;;;5104419;27;20773;-76
2021/10/26 00:54:58;;;;;;;17.92;16.02;;;5.80;1.00;;;;;;5104608;27;20223;-76
2021/10/26 00:57:28;;;;;;;18.58;16.83;;;5.80;1.00;;;;;;5104751;27;20300;-77
2021/10/26 00:59:56;;;;;;;16.85;15.15;;;5.80;1.00;;;;;;5102916;27;20234;-77
2021/10/26 01:02:23;;;;;;;17.38;15.77;;;5.80;1.00;;;;;;5104282;27;20962;-77
2021/10/26 01:04:49;;;;;;;17.70;15.90;;;5.80;1.00;;;;;;5095258;27;20313;-76
2021/10/26 01:07:16;;;;;;;20.65;15.80;;;5.90;1.00;;;;;;5099868;27;21185;-76
2021/10/26 01:09:45;;;;;;;17.38;15.45;;;6.00;1.00;;;;;;5099482;27;20226;-76
2021/10/26 01:12:11;;;;;;;19.33;15.10;;;6.10;1.00;;;;;;5105333;27;20241;-77
2021/10/26 01:14:38;;;;;;;19.15;17.20;;;6.10;1.00;;;;;;5102102;27;20226;-77
2021/10/26 01:17:09;;;;;;;19.73;17.08;;;6.10;1.00;;;;;;5107332;27;20215;-77
2021/10/26 01:19:45;;;;;;;19.30;16.70;;;6.10;1.00;;;;;;5107885;27;20242;-77
2021/10/26 01:22:13;;;;;;;17.33;15.60;;;6.00;1.00;;;;;;5107139;27;20222;-76
2021/10/26 01:24:40;;;;;;;18.55;16.67;;;6.00;1.00;;;;;;5097948;27;20965;-76
2021/10/26 01:27:06;;;;;;;19.30;16.67;;;6.10;1.00;;;;;;5121830;27;20234;-77
2021/10/26 01:29:35;;;;;;;17.10;15.30;;;6.00;1.00;;;;;;5121268;27;20235;-76
2021/10/26 01:32:03;;;;;;;17.88;16.13;;;6.10;1.00;;;;;;5104443;27;20322;-77
2021/10/26 01:34:29;;;;;;;17.02;15.30;;;6.20;1.00;;;;;;5107320;27;20250;-77
2021/10/26 01:36:59;;;;;;;20.85;18.17;;;6.20;1.00;;;;;;5106073;27;20699;-76
2021/10/26 01:39:26;;;;;;;17.27;15.52;;;6.30;1.00;;;;;;5099194;27;20332;-76
2021/10/26 01:41:53;;;;;;;17.55;15.82;;;6.40;1.00;;;;;;5101887;27;20310;-77
2021/10/26 01:44:20;;;;;;;17.45;15.25;;;6.40;1.00;;;;;;5100096;27;20220;-76
2021/10/26 01:46:47;;;;;;;18.92;16.63;;;6.40;1.00;;;;;;5102965;27;20262;-76
2021/10/26 01:49:13;;;;;;;17.80;15.57;;;6.40;1.00;;;;;;5105103;27;20206;-76
2021/10/26 01:51:40;;;;;;;17.63;15.77;;;6.30;1.00;;;;;;5101063;27;20230;-76
2021/10/26 01:54:08;;;;;;;17.05;15.25;;;6.30;1.00;;;;;;5101530;27;20235;-77
2021/10/26 01:56:35;;;;;;;19.92;16.75;;;6.30;1.00;;;;;;5107580;27;20265;-76
2021/10/26 01:59:02;;;;;;;17.95;16.05;;;6.30;1.00;;;;;;5104095;27;20233;-77
2021/10/26 02:01:29;;;;;;;18.60;16.70;;;6.30;1.00;;;;;;5106611;27;20776;-76
2021/10/26 02:03:55;;;;;;;17.55;15.85;;;6.30;1.00;;;;;;5104330;27;20274;-76
2021/10/26 02:06:22;;;;;;;18.23;16.38;;;6.20;1.00;;;;;;5108446;27;20222;-76
2021/10/26 02:08:49;;;;;;;18.38;15.80;;;6.20;1.00;;;;;;5096583;27;20227;-76
2021/10/26 02:11:17;;;;;;;18.15;15.68;;;6.10;1.00;;;;;;5106075;27;20221;-77
2021/10/26 02:13:43;;;;;;;17.38;15.57;;;6.10;1.00;;;;;;5111242;27;20234;-76
2021/10/26 02:16:11;;;;;;;18.35;16.20;;;6.10;1.00;;;;;;5115312;27;20224;-75
2021/10/26 02:18:37;;;;;;;18.05;16.30;;;6.00;1.00;;;;;;5117706;27;20219;-76
2021/10/26 02:21:04;;;;;;;20.88;17.33;;;6.00;1.00;;;;;;5123229;27;20230;-76
2021/10/26 02:23:31;;;;;;;18.00;16.15;;;5.90;1.00;;;;;;5119322;27;20226;-76
2021/10/26 02:25:57;;;;;;;17.17;15.20;;;5.90;1.00;;;;;;5123203;27;20224;-76
2021/10/26 02:28:25;;;;;;;20.83;17.23;;;5.90;1.00;;;;;;5131710;27;20263;-76
2021/10/26 02:30:52;;;;;;;16.80;15.20;;;5.90;1.00;;;;;;5123481;27;20224;-77
2021/10/26 02:33:19;;;;;;;18.25;15.25;;;5.90;1.00;;;;;;5122298;27;20219;-77
2021/10/26 02:35:46;;;;;;;18.00;16.10;;;5.90;1.00;;;;;;5123238;27;20218;-77
2021/10/26 02:38:13;;;;;;;19.48;16.42;;;6.00;1.00;;;;;;5126262;27;20228;-77
2021/10/26 02:40:39;;;;;;;18.00;16.00;;;6.00;1.00;;;;;;5111811;27;22090;-77
2021/10/26 02:43:06;;;;;;;18.35;16.52;;;6.00;1.00;;;;;;5112893;27;20215;-77
2021/10/26 02:45:34;;;;;;;16.50;14.73;;;6.00;1.00;;;;;;5111527;27;20296;-77
2021/10/26 02:48:01;;;;;;;18.67;16.60;;;5.90;1.00;;;;;;5115354;27;20312;-77
2021/10/26 02:50:28;;;;;;;19.38;16.88;;;5.90;1.00;;;;;;5113166;27;20240;-77
2021/10/26 02:52:55;;;;;;;17.08;15.38;;;5.80;1.00;;;;;;5111371;27;20231;-77
2021/10/26 02:55:21;;;;;;;17.77;15.88;;;5.80;1.00;;;;;;5112333;27;20219;-77
2021/10/26 02:57:48;;;;;;;19.50;16.38;;;5.70;1.00;;;;;;5111206;27;20216;-77
2021/10/26 03:00:15;;;;;;;19.13;16.90;;;5.60;1.00;;;;;;5110070;27;20223;-78
2021/10/26 03:02:43;;;;;;;18.70;16.65;;;5.60;1.00;;;;;;5106674;27;20223;-78
2021/10/26 03:05:10;;;;;;;19.17;16.95;;;5.60;1.00;;;;;;5105442;27;20311;-77
2021/10/26 03:07:40;;;;;;;19.05;16.55;;;5.60;1.00;;;;;;5112292;27;20234;-78
2021/10/26 03:10:07;;;;;;;19.90;15.07;;;5.60;1.00;;;;;;5107636;27;20737;-77
2021/10/26 03:12:34;;;;;;;20.77;16.40;;;5.70;1.00;;;;;;5104411;27;20242;-76
2021/10/26 03:15:01;;;;;;;18.40;16.45;;;5.80;1.00;;;;;;5096133;27;20918;-77
2021/10/26 03:17:28;;;;;;;17.50;15.75;;;5.80;1.00;;;;;;5106880;27;20306;-77
2021/10/26 03:19:56;;;;;;;21.75;18.45;;;5.90;1.00;;;;;;5107511;27;20242;-77
2021/10/26 03:22:22;;;;;;;18.50;16.55;;;5.80;1.00;;;;;;5104293;27;20979;-77
2021/10/26 03:24:49;;;;;;;18.92;16.88;;;5.80;1.00;;;;;;5103900;27;20351;-76
2021/10/26 03:27:15;;;;;;;19.40;16.92;;;5.70;1.00;;;;;;5083429;27;20221;-77
2021/10/26 03:29:42;;;;;;;21.20;16.42;;;5.80;1.00;;;;;;5105644;27;21186;-77
2021/10/26 03:32:09;;;;;;;19.10;16.60;;;5.90;1.00;;;;;;5102129;27;20788;-77
2021/10/26 03:34:36;;;;;;;20.98;15.85;;;5.80;1.00;;;;;;5110628;27;20219;-77
2021/10/26 03:37:04;;;;;;;19.88;17.73;;;5.90;1.00;;;;;;5103667;27;20744;-77
2021/10/26 03:39:31;;;;;;;20.63;17.13;;;5.90;1.00;;;;;;5114236;27;20674;-77
2021/10/26 03:41:58;;;;;;;18.73;16.83;;;5.90;1.00;;;;;;5102562;27;20653;-77
2021/10/26 03:44:24;;;;;;;17.42;15.65;;;6.00;1.00;;;;;;5107625;27;20219;-76
2021/10/26 03:46:51;;;;;;;18.60;15.82;;;6.00;1.00;;;;;;5107365;27;20212;-77
2021/10/26 03:49:18;;;;;;;18.75;15.32;;;6.10;1.00;;;;;;5103763;27;20231;-76
2021/10/26 03:51:45;;;;;;;17.50;15.50;;;6.30;1.00;;;;;;5103658;27;20989;-77
2021/10/26 03:54:13;;;;;;;17.48;14.90;;;6.30;1.00;;;;;;5103907;27;20218;-77
2021/10/26 03:56:40;;;;;;;23.17;16.60;;;6.50;1.00;;;;;;5106433;27;20227;-77
2021/10/26 03:59:09;;;;;;;16.92;14.60;;;6.50;1.00;;;;;;5101067;27;20231;-77
2021/10/26 04:01:36;;;;;;;15.82;14.20;;;6.60;1.00;;;;;;5106520;27;20227;-77
2021/10/26 04:04:04;;;;;;;16.52;14.77;;;6.70;1.00;;;;;;5102298;27;20392;-78
2021/10/26 04:06:31;;;;;;;16.77;14.10;;;6.70;1.00;;;;;;5107749;27;20299;-77
2021/10/26 04:09:00;;;;;;;19.67;15.10;;;6.70;1.00;;;;;;5102656;27;20215;-77
2021/10/26 04:11:29;;;;;;;15.98;14.15;;;6.70;1.00;;;;;;5107268;27;20243;-77
2021/10/26 04:13:56;;;;;;;18.27;14.23;;;6.80;1.00;;;;;;5099516;27;20230;-78
2021/10/26 04:16:24;;;;;;;27.42;23.38;;;6.80;1.00;;;;;;5108853;27;20220;-76
2021/10/26 04:18:51;;;;;;;15.98;14.30;;;6.90;1.00;;;;;;5114989;27;20225;-76
2021/10/26 04:21:17;;;;;;;16.23;13.90;;;6.90;1.00;;;;;;5094198;27;20235;-76
2021/10/26 04:23:46;;;;;;;16.02;14.35;;;7.00;1.00;;;;;;5118843;27;20284;-77
2021/10/26 04:26:15;;;;;;;15.27;13.68;;;7.10;1.00;;;;;;5112579;27;20358;-77
2021/10/26 04:28:43;;;;;;;15.77;14.05;;;7.20;1.00;;;;;;5115563;27;21429;-77
2021/10/26 04:31:09;;;;;;;16.38;14.88;;;7.20;1.00;;;;;;5108030;27;22020;-77
2021/10/26 04:33:36;;;;;;;14.30;12.60;;;7.20;1.00;;;;;;5111321;27;20278;-77
2021/10/26 04:36:03;;;;;;;16.02;14.10;;;7.20;1.00;;;;;;5106594;27;20219;-76
2021/10/26 04:38:29;;;;;;;14.93;13.45;;;7.20;1.00;;;;;;5116044;27;20219;-76
2021/10/26 04:40:58;;;;;;;15.05;13.10;;;7.30;1.00;;;;;;5120025;27;20227;-77
2021/10/26 04:43:26;;;;;;;15.00;13.40;;;7.30;1.00;;;;;;5100810;27;20214;-74
2021/10/26 04:45:54;;;;;;;14.90;13.38;;;7.30;1.00;;;;;;5103912;27;20297;-77
2021/10/26 04:48:22;;;;;;;17.45;14.30;;;7.40;1.00;;;;;;5101145;27;20219;-77
2021/10/26 04:50:48;;;;;;;16.10;14.55;;;7.40;1.00;;;;;;5105184;27;20223;-79
2021/10/26 04:53:15;;;;;;;14.73;13.10;;;7.50;1.00;;;;;;5103996;27;20305;-77
2021/10/26 04:55:42;;;;;;;14.38;12.98;;;7.50;1.00;;;;;;5108345;27;20937;-77
2021/10/26 04:58:09;;;;;;;14.88;13.27;;;7.50;1.00;;;;;;5103553;27;20219;-77
2021/10/26 05:00:36;;;;;;;14.95;13.55;;;7.50;1.00;;;;;;5109495;27;21299;-77
2021/10/26 05:03:04;;;;;;;15.05;13.55;;;7.50;1.00;;;;;;5102673;27;20223;-77
2021/10/26 05:05:30;;;;;;;18.10;14.48;;;7.50;1.00;;;;;;5103840;27;20624;-77
2021/10/26 05:07:57;;;;;;;15.98;14.30;;;7.60;1.00;;;;;;5112060;27;20215;-77
2021/10/26 05:10:24;;;;;;;14.73;12.68;;;7.70;1.00;;;;;;5107293;27;20228;-78
2021/10/26 05:12:50;;;;;;;16.73;13.77;;;7.70;1.00;;;;;;5113396;27;20422;-77
2021/10/26 05:15:17;;;;;;;15.60;14.00;;;7.80;1.00;;;;;;5101100;27;20249;-78
2021/10/26 05:17:44;;;;;;;17.20;11.93;;;7.80;1.00;;;;;;5110251;27;20304;-78
2021/10/26 05:20:14;;;;;;;14.50;13.00;;;7.80;1.00;;;;;;5105711;27;20237;-79
2021/10/26 05:22:41;;;;;;;19.75;14.77;;;7.80;1.00;;;;;;5108072;27;20297;-78
2021/10/26 05:25:08;;;;;;;17.42;14.15;;;7.80;1.00;;;;;;5105486;27;20224;-81
2021/10/26 05:27:37;;;;;;;17.13;14.68;;;7.80;1.00;;;;;;5106664;27;20304;-80
2021/10/26 05:30:04;;;;;;;15.07;13.15;;;7.90;1.00;;;;;;5107309;27;20319;-78
2021/10/26 05:32:32;;;;;;;16.38;13.65;;;7.90;1.00;;;;;;5107788;27;21090;-78
2021/10/26 05:34:58;;;;;;;17.65;14.23;;;7.90;1.00;;;;;;5105122;27;20605;-78
2021/10/26 05:37:26;;;;;;;18.17;14.65;;;7.90;1.00;;;;;;5107780;27;20315;-78
2021/10/26 05:39:53;;;;;;;14.27;12.65;;;8.00;1.00;;;;;;5103295;27;20218;-79
2021/10/26 05:42:20;;;;;;;17.35;14.93;;;8.00;1.00;;;;;;5109506;27;20779;-78
2021/10/26 05:44:48;;;;;;;16.60;14.50;;;8.10;1.00;;;;;;5111503;27;20223;-79
2021/10/26 05:47:14;;;;;;;15.65;14.15;;;8.10;1.00;;;;;;5114986;27;20235;-78
2021/10/26 05:49:42;;;;;;;16.05;13.52;;;8.10;1.00;;;;;;5084342;27;20376;-79
2021/10/26 05:52:08;;;;;;;16.08;13.63;;;8.10;1.00;;;;;;5108864;27;20233;-80
2021/10/26 05:54:36;;;;;;;15.48;13.88;;;8.10;1.00;;;;;;5106213;27;20244;-77
2021/10/26 05:57:03;;;;;;;15.73;13.55;;;8.10;1.00;;;;;;5113701;27;20215;-77
2021/10/26 05:59:30;;;;;;;119.65;62.92;;;8.10;1.00;;;;;;5105074;27;20228;-78
2021/10/26 06:01:57;;;;;;;21.13;16.25;;;8.10;1.00;;;;;;5114172;27;20290;-79
2021/10/26 06:04:24;;;;;;;18.55;16.75;;;8.10;1.00;;;;;;5105547;27;20224;-78
2021/10/26 06:06:51;;;;;;;19.23;17.20;;;8.10;1.00;;;;;;5108754;27;20224;-77
2021/10/26 06:09:18;;;;;;;18.73;15.32;;;8.10;1.00;;;;;;5106054;27;20217;-77
2021/10/26 06:11:48;;;;;;;15.35;13.90;;;8.20;1.00;;;;;;5128522;27;20261;-78
2021/10/26 06:14:15;;;;;;;15.95;14.25;;;8.20;1.00;;;;;;5116566;27;20245;-77
2021/10/26 06:16:42;;;;;;;15.07;13.68;;;8.30;1.00;;;;;;5095092;27;20228;-78
2021/10/26 06:19:09;;;;;;;15.23;13.73;;;8.30;1.00;;;;;;5111252;27;21129;-77
2021/10/26 06:21:36;;;;;;;18.52;16.00;;;8.30;1.00;;;;;;5106887;27;20221;-77
2021/10/26 06:24:03;;;;;;;14.80;13.30;;;8.40;1.00;;;;;;5110003;27;21014;-77
2021/10/26 06:26:31;;;;;;;18.08;15.05;;;8.40;1.00;;;;;;5112714;27;20290;-79
2021/10/26 06:28:59;;;;;;;17.90;14.55;;;8.40;1.00;;;;;;5105809;27;20239;-78
2021/10/26 06:31:27;;;;;;;15.60;13.73;;;8.50;1.00;;;;;;5105644;27;20234;-78
2021/10/26 06:33:54;;;;;;;16.38;14.68;;;8.60;1.00;;;;;;5112494;27;20239;-78
2021/10/26 06:36:21;;;;;;;16.27;14.30;;;8.60;1.00;;;;;;5108157;27;20219;-79
2021/10/26 06:38:47;;;;;;;16.70;13.73;;;8.70;1.00;;;;;;5106456;27;21450;-77
2021/10/26 06:41:14;;;;;;;16.85;15.15;;;8.70;1.00;;;;;;5102023;27;20217;-79
2021/10/26 06:43:41;;;;;;;16.23;14.50;;;8.80;1.00;;;;;;5107244;27;21059;-77
2021/10/26 06:46:09;;;;;;;19.45;16.20;;;8.80;1.00;;;;;;5100648;27;21042;-78
2021/10/26 06:48:35;;;;;;;16.35;14.20;;;8.90;1.00;;;;;;5105448;27;21149;-78
2021/10/26 06:51:02;;;;;;;13.82;12.43;;;8.90;1.00;;;;;;5102113;27;20217;-78
2021/10/26 06:53:29;;;;;;;16.15;13.77;;;9.00;1.00;;;;;;5104255;27;20218;-78
2021/10/26 06:55:59;;;;;;;16.17;14.60;;;9.00;1.00;;;;;;5111506;27;20233;-78
2021/10/26 06:58:26;;;;;;;15.77;13.57;;;9.00;1.00;;;;;;5115430;27;20683;-78
2021/10/26 07:00:52;;;;;;;19.38;15.65;;;9.00;1.00;;;;;;5114166;27;20234;-78
2021/10/26 07:03:21;;;;;;;16.58;14.35;;;9.10;1.00;;;;;;5109702;27;20235;-78
2021/10/26 07:05:48;;;;;;;19.23;14.75;;;9.10;1.00;;;;;;5104684;27;21495;-79
2021/10/26 07:08:14;;;;;;;15.10;13.40;;;9.20;1.00;;;;;;5112827;27;20218;-77
2021/10/26 07:10:41;;;;;;;17.02;15.32;;;9.30;1.00;;;;;;5118624;27;20225;-76
2021/10/26 07:13:08;;;;;;;15.05;13.55;;;9.30;1.00;;;;;;5118360;27;20233;-77
2021/10/26 07:15:34;;;;;;;16.20;14.67;;;9.30;1.00;;;;;;5111544;27;20238;-78
2021/10/26 07:18:01;;;;;;;18.00;15.47;;;9.40;1.00;;;;;;5111886;27;20445;-78
2021/10/26 07:20:29;;;;;;;17.97;14.90;;;9.50;1.00;;;;;;5111440;27;21150;-79
2021/10/26 07:22:57;;;;;;;17.13;14.10;;;9.70;1.00;;;;;;5114017;27;21098;-78
2021/10/26 07:25:24;;;;;;;15.83;13.40;;;9.70;1.00;;;;;;5116127;27;20529;-78
2021/10/26 07:27:57;;;;;;;15.83;14.07;;;9.80;1.00;;;;;;5113642;27;20472;-79
2021/10/26 07:30:27;;;;;;;17.10;13.50;;;9.80;1.00;;;;;;5097563;27;21357;-79
2021/10/26 07:32:55;;;;;;;15.53;13.93;;;9.90;1.00;;;;;;5112623;27;20415;-78
2021/10/26 07:35:22;;;;;;;18.67;16.57;;;9.90;1.00;;;;;;5114867;27;20457;-79
2021/10/26 07:37:50;;;;;;;16.27;13.10;;;10.00;1.00;;;;;;5105747;27;20473;-78
2021/10/26 07:40:17;;;;;;;18.00;15.45;;;10.00;1.00;;;;;;5115161;27;20487;-78
2021/10/26 07:42:44;;;;;;;15.90;13.40;;;10.10;1.00;;;;;;5093256;27;20226;-77
2021/10/26 07:45:12;;;;;;;16.20;14.50;;;10.20;1.00;;;;;;5111439;27;21061;-77
2021/10/26 07:47:39;;;;;;;14.90;13.40;;;10.20;1.00;;;;;;5107863;27;20499;-77
2021/10/26 07:50:07;;;;;;;17.07;14.03;;;10.30;1.00;;;;;;5123043;27;20480;-77
2021/10/26 07:52:34;;;;;;;14.90;13.50;;;10.30;1.00;;;;;;5089569;27;20447;-78
2021/10/26 07:55:03;;;;;;;16.10;13.90;;;10.30;1.00;;;;;;5108737;27;20466;-78
2021/10/26 07:57:30;;;;;;;15.43;13.83;;;10.40;1.00;;;;;;5110080;27;21257;-77
2021/10/26 07:59:57;;;;;;;16.87;14.30;;;10.40;1.00;;;;;;5107314;27;20476;-77
2021/10/26 08:02:25;;;;;;;17.17;13.40;;;10.40;1.00;;;;;;5113318;27;20434;-78
2021/10/26 08:04:53;;;;;;;17.93;14.23;;;10.60;1.00;;;;;;5112480;27;20468;-78
2021/10/26 08:07:20;;;;;;;16.97;14.13;;;10.70;1.00;;;;;;5131892;27;20453;-77
2021/10/26 08:09:48;;;;;;;17.87;14.60;;;10.80;1.00;;;;;;5122467;27;20442;-77
2021/10/26 08:12:16;;;;;;;17.43;15.37;;;10.90;1.00;;;;;;5106581;27;20440;-77
2021/10/26 08:14:43;;;;;;;17.77;14.13;;;11.00;1.00;;;;;;5113002;27;20440;-77
2021/10/26 08:17:10;;;;;;;15.90;14.20;;;11.20;1.00;;;;;;5109263;27;21300;-77
2021/10/26 08:19:37;;;;;;;17.47;15.63;;;11.40;1.00;;;;;;5108999;27;20476;-77
2021/10/26 08:22:06;;;;;;;14.80;13.03;;;11.60;1.00;;;;;;5109713;27;20437;-77
2021/10/26 08:24:33;;;;;;;16.33;13.87;;;11.70;1.00;;;;;;5108491;27;21669;-78
2021/10/26 08:27:03;;;;;;;18.43;14.17;;;11.80;1.00;;;;;;5094665;27;20454;-78
2021/10/26 08:29:41;;;;;;;17.87;14.60;;;11.90;1.00;;;;;;5113200;27;20458;-78
2021/10/26 08:32:25;;;;;;;16.80;15.10;;;12.10;1.00;;;;;;5109965;27;20453;-77
2021/10/26 08:35:14;;;;;;;18.17;15.20;;;12.30;1.00;;;;;;5107383;27;20449;-77
2021/10/26 08:37:40;;;;;;;15.60;14.00;;;12.60;1.00;;;;;;5105590;27;20464;-77
2021/10/26 08:40:08;;;;;;;16.70;14.47;;;12.70;1.00;;;;;;5106592;27;20473;-78
2021/10/26 08:42:36;;;;;;;15.70;13.60;;;12.80;1.00;;;;;;5107503;27;21242;-78
2021/10/26 08:45:06;;;;;;;16.37;13.53;;;12.90;1.00;;;;;;5109776;27;20472;-78
2021/10/26 08:47:32;;;;;;;16.87;14.50;;;12.90;1.00;;;;;;5112325;27;20457;-79
2021/10/26 08:49:59;;;;;;;19.57;13.80;;;12.80;1.00;;;;;;5089731;27;20438;-77
2021/10/26 08:52:26;;;;;;;15.23;13.63;;;12.80;1.00;;;;;;5110937;27;20454;-78
2021/10/26 08:54:52;;;;;;;16.17;14.40;;;12.80;1.00;;;;;;5106489;27;20496;-77
2021/10/26 08:57:19;;;;;;;16.97;13.63;;;12.70;1.00;;;;;;5105520;27;21131;-76
2021/10/26 08:59:46;;;;;;;16.43;13.20;;;12.70;1.00;;;;;;5114108;27;20469;-81
2021/10/26 09:02:14;;;;;;;18.13;14.87;;;12.70;1.00;;;;;;5092764;27;20521;-75
2021/10/26 09:04:41;;;;;;;19.13;17.10;;;12.70;1.00;;;;;;5127281;27;20425;-76
2021/10/26 09:07:18;;;;;;;17.87;14.90;;;12.70;1.00;;;;;;5117949;27;21442;-76
2021/10/26 09:09:45;;;;;;;19.13;15.40;;;12.60;1.00;;;;;;5108843;27;20473;-78
2021/10/26 09:17:52;;;;;;;17.90;16.00;;;12.60;1.00;;;;;;5110343;27;20430;-78
2021/10/26 09:20:21;;;;;;;21.37;17.10;;;12.60;1.00;;;;;;5113228;27;20463;-77
2021/10/26 09:22:51;;;;;;;17.80;15.30;;;12.60;1.00;;;;;;5112262;27;20433;-79
2021/10/26 09:25:20;;;;;;;18.57;15.87;;;12.70;1.00;;;;;;5113372;27;20537;-78
2021/10/26 09:27:48;;;;;;;18.83;16.87;;;12.70;1.00;;;;;;5109188;27;20472;-77
2021/10/26 09:30:19;;;;;;;18.90;15.77;;;12.80;1.00;;;;;;5115534;27;20438;-76
2021/10/26 09:32:48;;;;;;;20.60;18.43;;;12.80;1.00;;;;;;5110654;27;20441;-77
2021/10/26 09:35:17;;;;;;;17.57;15.60;;;13.00;1.00;;;;;;5112903;27;20541;-78
2021/10/26 09:37:46;;;;;;;18.33;16.50;;;13.10;1.00;;;;;;5113930;27;20445;-77
2021/10/26 09:40:15;;;;;;;22.03;16.77;;;13.20;1.00;;;;;;5113450;27;20475;-77
2021/10/26 09:42:44;;;;;;;20.00;16.60;;;13.30;1.00;;;;;;5115409;27;20445;-78
2021/10/26 09:45:12;;;;;;;17.03;15.00;;;13.40;1.00;;;;;;5107304;27;21082;-77
2021/10/26 09:47:40;;;;;;;17.47;15.53;;;13.30;1.00;;;;;;5108172;27;20464;-79
2021/10/26 09:50:09;;;;;;;25.73;20.30;;;13.20;1.00;;;;;;5108259;27;20452;-79
2021/10/26 09:52:39;;;;;;;19.70;15.70;;;13.30;1.00;;;;;;5109706;27;20991;-78
2021/10/26 09:55:15;;;;;;;17.40;14.50;;;13.30;1.00;;;;;;5109881;27;20477;-76
2021/10/26 09:57:46;;;;;;;19.10;16.57;;;13.40;1.00;;;;;;5108123;27;20551;-79
2021/10/26 10:00:14;;;;;;;16.43;14.63;;;13.60;1.00;;;;;;5108870;27;20534;-77
2021/10/26 10:02:41;;;;;;;15.40;13.80;;;13.80;1.00;;;;;;5118759;27;20433;-77
2021/10/26 10:05:20;;;;;;;15.40;13.70;;;14.10;1.00;;;;;;5131908;27;20454;-77
2021/10/26 10:07:48;;;;;;;18.70;16.40;;;14.40;1.00;;;;;;5113797;27;20430;-79
2021/10/26 10:10:14;;;;;;;16.93;15.23;;;14.60;1.00;;;;;;5104121;27;20464;-77
2021/10/26 10:12:44;;;;;;;14.60;12.83;;;14.90;1.00;;;;;;5109183;27;20450;-78
2021/10/26 10:15:13;;;;;;;15.50;11.90;;;15.20;1.00;;;;;;5108401;27;20555;-78
2021/10/26 10:17:40;;;;;;;13.70;12.30;;;15.20;1.00;;;;;;5107964;27;20503;-79
2021/10/26 10:20:10;;;;;;;14.20;12.10;;;15.10;1.00;;;;;;5105471;27;20492;-79
2021/10/26 10:22:39;;;;;;;13.33;12.10;;;15.10;1.00;;;;;;5113710;27;20975;-78
2021/10/26 10:25:10;;;;;;;15.70;12.80;;;15.10;1.00;;;;;;5110091;27;21244;-78
2021/10/26 10:27:39;;;;;;;15.20;12.37;;;15.30;1.00;;;;;;5117478;27;20434;-76
2021/10/26 10:30:09;;;;;;;12.37;11.03;;;15.60;1.00;;;;;;5131288;27;21048;-77
2021/10/26 10:32:36;;;;;;;15.67;12.43;;;15.90;1.00;;;;;;5110057;27;20435;-78
2021/10/26 10:35:06;;;;;;;12.13;10.83;;;16.00;1.00;;;;;;5103673;27;20482;-77
2021/10/26 10:37:33;;;;;;;12.43;11.13;;;16.00;1.00;;;;;;5113992;27;20430;-78
2021/10/26 10:40:02;;;;;;;11.67;10.47;;;16.10;1.00;;;;;;5104221;27;20981;-77
2021/10/26 10:42:31;;;;;;;12.53;11.23;;;15.90;1.00;;;;;;5113270;27;20534;-77
2021/10/26 10:45:01;;;;;;;12.33;10.60;;;15.70;1.00;;;;;;5102756;27;20455;-78
2021/10/26 10:47:34;;;;;;;10.73;9.63;;;15.60;1.00;;;;;;5105437;27;20461;-77
2021/10/26 10:50:02;;;;;;;15.47;10.73;;;15.30;1.00;;;;;;5107936;27;20497;-78
2021/10/26 10:52:32;;;;;;;14.07;9.53;;;15.10;1.00;;;;;;5087541;27;20414;-78
2021/10/26 10:55:01;;;;;;;11.40;9.77;;;14.90;1.00;;;;;;5114606;27;20453;-78
2021/10/26 10:57:34;;;;;;;10.73;9.33;;;14.80;1.00;;;;;;5115165;27;20475;-77
2021/10/26 11:00:04;;;;;;;10.63;9.33;;;14.70;1.00;;;;;;5124740;27;20493;-76
2021/10/26 11:02:36;;;;;;;12.70;9.90;;;14.60;1.00;;;;;;5099736;27;20501;-77
2021/10/26 11:05:05;;;;;;;12.60;9.23;;;14.60;1.00;;;;;;5108141;27;21034;-78
2021/10/26 11:07:52;;;;;;;13.23;12.00;;;14.80;1.00;;;;;;5110354;27;20445;-79
2021/10/26 11:10:20;;;;;;;11.97;9.17;;;14.90;1.00;;;;;;5116916;27;20464;-79
2021/10/26 11:12:50;;;;;;;10.30;9.27;;;15.00;1.00;;;;;;5083891;27;20531;-77
2021/10/26 11:15:22;;;;;;;10.30;9.20;;;14.90;1.00;;;;;;5099337;27;20450;-79
2021/10/26 11:17:51;;;;;;;11.23;9.23;;;14.90;1.00;;;;;;5088317;27;20482;-79
2021/10/26 11:20:40;;;;;;;10.63;9.23;;;14.90;1.00;;;;;;5109257;27;20503;-81
2021/10/26 11:23:10;;;;;;;11.90;10.47;;;15.00;1.00;;;;;;5109244;27;20461;-78
2021/10/26 11:25:38;;;;;;;10.93;9.57;;;15.00;1.00;;;;;;5109617;27;20466;-78
2021/10/26 11:28:41;;;;;;;12.73;11.07;;;15.10;1.00;;;;;;5115588;27;20444;-77
2021/10/26 11:31:12;;;;;;;11.93;10.33;;;15.20;1.00;;;;;;5128361;27;20458;-80
2021/10/26 11:33:44;;;;;;;11.37;9.80;;;15.20;1.00;;;;;;5107915;27;20958;-80
2021/10/26 11:36:11;;;;;;;11.80;10.30;;;15.20;1.00;;;;;;5106327;27;20450;-77
2021/10/26 11:38:42;;;;;;;13.17;10.53;;;15.10;1.00;;;;;;5108465;27;20612;-77
2021/10/26 11:41:10;;;;;;;14.63;11.57;;;15.10;1.00;;;;;;5103153;27;20485;-81
2021/10/26 11:43:43;;;;;;;12.33;11.07;;;15.30;1.00;;;;;;5101898;27;20571;-77
2021/10/26 11:46:13;;;;;;;14.73;10.87;;;15.30;1.00;;;;;;5099503;27;20444;-79
2021/10/26 11:48:45;;;;;;;11.90;9.57;;;15.30;1.00;;;;;;5102738;27;20455;-79
2021/10/26 11:51:20;;;;;;;12.40;9.70;;;15.50;1.00;;;;;;5103222;27;20451;-78
2021/10/26 11:53:47;;;;;;;12.63;10.60;;;15.60;1.00;;;;;;5106216;27;20557;-78
2021/10/26 11:56:22;;;;;;;14.77;10.70;;;15.80;1.00;;;;;;5103323;27;20434;-78
2021/10/26 11:59:10;;;;;;;12.60;10.70;;;16.00;1.00;;;;;;5084867;27;20461;-76
2021/10/26 12:01:52;;;;;;;12.77;11.20;;;16.10;1.00;;;;;;5101748;27;20468;-78
2021/10/26 12:04:29;;;;;;;11.80;9.73;;;16.50;1.00;;;;;;5104815;27;20442;-76
2021/10/26 12:06:58;;;;;;;15.03;12.17;;;16.40;1.00;;;;;;5096237;27;20580;-77
2021/10/26 12:09:26;;;;;;;12.07;10.77;;;16.10;1.00;;;;;;5102011;27;20501;-79
2021/10/26 12:11:55;;;;;;;12.97;11.37;;;15.80;1.00;;;;;;5104473;27;20459;-79
2021/10/26 12:14:31;;;;;;;12.13;10.90;;;15.60;1.00;;;;;;5104803;27;20538;-78
2021/10/26 12:17:14;;;;;;;14.20;11.37;;;15.40;1.00;;;;;;5102611;27;20477;-78
2021/10/26 12:19:44;;;;;;;12.57;11.20;;;15.30;1.00;;;;;;5108353;27;20471;-79
2021/10/26 12:22:16;;;;;;;13.30;11.40;;;15.10;1.00;;;;;;5103739;27;20467;-79
2021/10/26 12:24:59;;;;;;;15.23;11.87;;;15.10;1.00;;;;;;5106866;27;20447;-78
2021/10/26 12:27:32;;;;;;;16.03;12.37;;;15.20;1.00;;;;;;5123670;27;20422;-77
2021/10/26 12:30:20;;;;;;;13.03;11.03;;;15.20;1.00;;;;;;5113176;27;20443;-77
2021/10/26 12:32:52;;;;;;;13.63;12.13;;;15.20;1.00;;;;;;5106120;27;20492;-78
2021/10/26 12:35:20;;;;;;;15.00;12.00;;;15.20;1.00;;;;;;5100987;27;20482;-77
2021/10/26 12:37:46;;;;;;;13.63;11.57;;;15.20;1.00;;;;;;5105435;27;20547;-78
2021/10/26 12:40:20;;;;;;;14.77;12.20;;;15.10;1.00;;;;;;5090241;27;20415;-78
2021/10/26 12:42:50;;;;;;;12.40;11.20;;;15.10;1.00;;;;;;5110554;27;21759;-79
2021/10/26 12:45:19;;;;;;;11.60;10.60;;;15.10;1.00;;;;;;5099188;27;20491;-78
2021/10/26 12:47:57;;;;;;;13.63;10.80;;;15.10;1.00;;;;;;5102016;27;20453;-78
2021/10/26 12:50:33;;;;;;;15.40;11.37;;;15.00;1.00;;;;;;5099305;27;20464;-78
2021/10/26 12:53:17;;;;;;;13.20;11.90;;;14.90;1.00;;;;;;5102503;27;20451;-77
2021/10/26 12:55:46;;;;;;;15.23;12.40;;;14.90;1.00;;;;;;5102288;27;20445;-77